sensor_id;sensor_type;location;lat;lon;timestamp;P1;durP1;ratioP1;P2;durP2;ratioP2
17790;SDS011;9019;48.132;-1.210;2022-12-11T00:01:51;48.20;;;30.20;;
17790;SDS011;9019;48.132;-1.210;2022-12-11T00:04:19;51.53;;;32.73;;
17790;SDS011;9019;48.132;-1.210;2022-12-11T00:06:46;52.37;;;30.17;;
17790;SDS011;9019;48.132;-1.210;2022-12-11T00:09:16;51.80;;;29.60;;
17790;SDS011;9019;48.132;-1.210;2022-12-11T00:11:43;45.70;;;28.17;;
17790;SDS011;9019;48.132;-1.210;2022-12-11T00:14:13;44.67;;;27.13;;
17790;SDS011;9019;48.132;-1.210;2022-12-11T00:16:40;44.57;;;26.97;;
17790;SDS011;9019;48.132;-1.210;2022-12-11T00:19:08;44.33;;;27.13;;
17790;SDS011;9019;48.132;-1.210;2022-12-11T00:21:35;47.37;;;29.87;;
17790;SDS011;9019;48.132;-1.210;2022-12-11T00:24:03;46.80;;;28.50;;
17790;SDS011;9019;48.132;-1.210;2022-12-11T00:26:32;48.20;;;31.40;;
17790;SDS011;9019;48.132;-1.210;2022-12-11T00:29:00;48.53;;;31.53;;
17790;SDS011;9019;48.132;-1.210;2022-12-11T00:31:28;48.20;;;30.80;;
17790;SDS011;9019;48.132;-1.210;2022-12-11T00:33:56;44.27;;;28.03;;
17790;SDS011;9019;48.132;-1.210;2022-12-11T00:36:26;46.47;;;29.40;;
17790;SDS011;9019;48.132;-1.210;2022-12-11T00:39:09;50.93;;;30.50;;
17790;SDS011;9019;48.132;-1.210;2022-12-11T00:41:38;56.17;;;33.13;;
17790;SDS011;9019;48.132;-1.210;2022-12-11T00:44:05;57.63;;;33.97;;
17790;SDS011;9019;48.132;-1.210;2022-12-11T00:46:33;51.10;;;31.70;;
17790;SDS011;9019;48.132;-1.210;2022-12-11T00:49:00;51.90;;;32.00;;
17790;SDS011;9019;48.132;-1.210;2022-12-11T00:51:28;52.60;;;32.23;;
17790;SDS011;9019;48.132;-1.210;2022-12-11T00:53:56;49.87;;;30.43;;
17790;SDS011;9019;48.132;-1.210;2022-12-11T00:56:23;51.90;;;31.50;;
17790;SDS011;9019;48.132;-1.210;2022-12-11T00:58:52;46.30;;;29.10;;
17790;SDS011;9019;48.132;-1.210;2022-12-11T01:01:20;45.60;;;27.90;;
17790;SDS011;9019;48.132;-1.210;2022-12-11T01:03:48;47.47;;;28.60;;
17790;SDS011;9019;48.132;-1.210;2022-12-11T01:06:17;47.47;;;27.77;;
17790;SDS011;9019;48.132;-1.210;2022-12-11T01:08:45;43.90;;;27.70;;
17790;SDS011;9019;48.132;-1.210;2022-12-11T01:11:33;50.03;;;28.90;;
17790;SDS011;9019;48.132;-1.210;2022-12-11T01:14:02;47.13;;;28.43;;
17790;SDS011;9019;48.132;-1.210;2022-12-11T01:16:29;48.60;;;27.93;;
17790;SDS011;9019;48.132;-1.210;2022-12-11T01:18:57;48.47;;;27.97;;
17790;SDS011;9019;48.132;-1.210;2022-12-11T01:21:24;48.53;;;27.77;;
17790;SDS011;9019;48.132;-1.210;2022-12-11T01:23:52;48.03;;;27.57;;
17790;SDS011;9019;48.132;-1.210;2022-12-11T01:26:20;48.63;;;28.73;;
17790;SDS011;9019;48.132;-1.210;2022-12-11T01:28:48;47.77;;;27.97;;
17790;SDS011;9019;48.132;-1.210;2022-12-11T01:31:21;47.17;;;28.10;;
17790;SDS011;9019;48.132;-1.210;2022-12-11T01:33:48;47.50;;;26.90;;
17790;SDS011;9019;48.132;-1.210;2022-12-11T01:36:16;45.70;;;28.17;;
17790;SDS011;9019;48.132;-1.210;2022-12-11T01:38:45;46.23;;;27.63;;
17790;SDS011;9019;48.132;-1.210;2022-12-11T01:41:14;45.80;;;26.87;;
17790;SDS011;9019;48.132;-1.210;2022-12-11T01:44:01;48.60;;;29.23;;
17790;SDS011;9019;48.132;-1.210;2022-12-11T01:46:35;47.47;;;27.50;;
17790;SDS011;9019;48.132;-1.210;2022-12-11T01:49:06;50.17;;;28.40;;
17790;SDS011;9019;48.132;-1.210;2022-12-11T01:51:35;46.57;;;27.40;;
17790;SDS011;9019;48.132;-1.210;2022-12-11T01:54:05;51.10;;;27.70;;
17790;SDS011;9019;48.132;-1.210;2022-12-11T01:56:36;47.33;;;28.07;;
17790;SDS011;9019;48.132;-1.210;2022-12-11T01:59:04;43.83;;;26.60;;
17790;SDS011;9019;48.132;-1.210;2022-12-11T02:01:36;46.57;;;27.00;;
17790;SDS011;9019;48.132;-1.210;2022-12-11T02:04:03;46.07;;;26.17;;
17790;SDS011;9019;48.132;-1.210;2022-12-11T02:06:35;63.33;;;35.00;;
17790;SDS011;9019;48.132;-1.210;2022-12-11T02:09:03;55.63;;;32.10;;
17790;SDS011;9019;48.132;-1.210;2022-12-11T02:11:34;50.87;;;29.10;;
17790;SDS011;9019;48.132;-1.210;2022-12-11T02:14:07;49.20;;;27.07;;
17790;SDS011;9019;48.132;-1.210;2022-12-11T02:16:43;40.73;;;24.73;;
17790;SDS011;9019;48.132;-1.210;2022-12-11T02:19:16;41.43;;;23.90;;
17790;SDS011;9019;48.132;-1.210;2022-12-11T02:21:46;40.10;;;23.77;;
17790;SDS011;9019;48.132;-1.210;2022-12-11T02:24:23;41.47;;;24.70;;
17790;SDS011;9019;48.132;-1.210;2022-12-11T02:27:07;38.43;;;23.73;;
17790;SDS011;9019;48.132;-1.210;2022-12-11T02:29:44;41.27;;;23.57;;
17790;SDS011;9019;48.132;-1.210;2022-12-11T02:32:14;41.20;;;24.47;;
17790;SDS011;9019;48.132;-1.210;2022-12-11T02:34:43;43.53;;;24.43;;
17790;SDS011;9019;48.132;-1.210;2022-12-11T02:37:14;43.47;;;25.53;;
17790;SDS011;9019;48.132;-1.210;2022-12-11T02:39:43;44.73;;;25.47;;
17790;SDS011;9019;48.132;-1.210;2022-12-11T02:42:11;45.33;;;25.10;;
17790;SDS011;9019;48.132;-1.210;2022-12-11T02:44:43;41.50;;;24.03;;
17790;SDS011;9019;48.132;-1.210;2022-12-11T02:47:11;42.37;;;24.60;;
17790;SDS011;9019;48.132;-1.210;2022-12-11T02:49:40;39.83;;;22.87;;
17790;SDS011;9019;48.132;-1.210;2022-12-11T02:52:09;41.87;;;23.77;;
17790;SDS011;9019;48.132;-1.210;2022-12-11T02:54:38;44.90;;;23.87;;
17790;SDS011;9019;48.132;-1.210;2022-12-11T02:57:08;44.07;;;24.03;;
17790;SDS011;9019;48.132;-1.210;2022-12-11T02:59:37;41.13;;;23.80;;
17790;SDS011;9019;48.132;-1.210;2022-12-11T03:02:07;43.57;;;24.33;;
17790;SDS011;9019;48.132;-1.210;2022-12-11T03:04:36;42.53;;;23.07;;
17790;SDS011;9019;48.132;-1.210;2022-12-11T03:07:08;42.50;;;23.90;;
17790;SDS011;9019;48.132;-1.210;2022-12-11T03:09:37;40.10;;;22.73;;
17790;SDS011;9019;48.132;-1.210;2022-12-11T03:12:08;41.13;;;22.87;;
17790;SDS011;9019;48.132;-1.210;2022-12-11T03:14:37;41.97;;;23.50;;
17790;SDS011;9019;48.132;-1.210;2022-12-11T03:17:09;37.80;;;22.70;;
17790;SDS011;9019;48.132;-1.210;2022-12-11T03:19:39;39.80;;;22.40;;
17790;SDS011;9019;48.132;-1.210;2022-12-11T03:22:08;37.83;;;21.83;;
17790;SDS011;9019;48.132;-1.210;2022-12-11T03:24:37;37.93;;;22.17;;
17790;SDS011;9019;48.132;-1.210;2022-12-11T03:27:06;35.07;;;20.60;;
17790;SDS011;9019;48.132;-1.210;2022-12-11T03:29:35;36.23;;;20.77;;
17790;SDS011;9019;48.132;-1.210;2022-12-11T03:32:05;36.90;;;20.83;;
17790;SDS011;9019;48.132;-1.210;2022-12-11T03:34:36;33.77;;;19.63;;
17790;SDS011;9019;48.132;-1.210;2022-12-11T03:37:11;32.93;;;19.40;;
17790;SDS011;9019;48.132;-1.210;2022-12-11T03:39:40;36.87;;;20.47;;
17790;SDS011;9019;48.132;-1.210;2022-12-11T03:42:09;35.57;;;20.17;;
17790;SDS011;9019;48.132;-1.210;2022-12-11T03:44:37;36.07;;;20.00;;
17790;SDS011;9019;48.132;-1.210;2022-12-11T03:47:06;37.47;;;20.30;;
17790;SDS011;9019;48.132;-1.210;2022-12-11T03:49:36;36.83;;;20.07;;
17790;SDS011;9019;48.132;-1.210;2022-12-11T03:52:07;35.47;;;19.60;;
17790;SDS011;9019;48.132;-1.210;2022-12-11T03:54:35;35.83;;;19.60;;
17790;SDS011;9019;48.132;-1.210;2022-12-11T03:57:04;35.70;;;19.53;;
17790;SDS011;9019;48.132;-1.210;2022-12-11T03:59:31;34.10;;;18.63;;
17790;SDS011;9019;48.132;-1.210;2022-12-11T04:01:59;34.50;;;19.17;;
17790;SDS011;9019;48.132;-1.210;2022-12-11T04:04:26;37.07;;;20.40;;
17790;SDS011;9019;48.132;-1.210;2022-12-11T04:06:55;37.13;;;19.90;;
17790;SDS011;9019;48.132;-1.210;2022-12-11T04:09:22;37.33;;;20.03;;
17790;SDS011;9019;48.132;-1.210;2022-12-11T04:11:49;37.00;;;18.53;;
17790;SDS011;9019;48.132;-1.210;2022-12-11T04:14:16;38.53;;;20.10;;
17790;SDS011;9019;48.132;-1.210;2022-12-11T04:17:01;37.47;;;18.33;;
17790;SDS011;9019;48.132;-1.210;2022-12-11T04:19:28;36.60;;;19.67;;
17790;SDS011;9019;48.132;-1.210;2022-12-11T04:22:15;37.97;;;19.60;;
17790;SDS011;9019;48.132;-1.210;2022-12-11T04:25:03;35.63;;;19.47;;
17790;SDS011;9019;48.132;-1.210;2022-12-11T04:27:31;36.33;;;20.10;;
17790;SDS011;9019;48.132;-1.210;2022-12-11T04:30:17;36.27;;;19.47;;
17790;SDS011;9019;48.132;-1.210;2022-12-11T04:32:46;37.37;;;20.13;;
17790;SDS011;9019;48.132;-1.210;2022-12-11T04:35:14;35.40;;;19.43;;
17790;SDS011;9019;48.132;-1.210;2022-12-11T04:37:43;36.93;;;19.63;;
17790;SDS011;9019;48.132;-1.210;2022-12-11T04:40:11;37.30;;;19.40;;
17790;SDS011;9019;48.132;-1.210;2022-12-11T04:42:39;36.37;;;19.97;;
17790;SDS011;9019;48.132;-1.210;2022-12-11T04:45:07;40.00;;;21.87;;
17790;SDS011;9019;48.132;-1.210;2022-12-11T04:47:35;38.37;;;21.33;;
17790;SDS011;9019;48.132;-1.210;2022-12-11T04:50:06;41.57;;;21.87;;
17790;SDS011;9019;48.132;-1.210;2022-12-11T04:52:33;36.93;;;19.37;;
17790;SDS011;9019;48.132;-1.210;2022-12-11T04:55:04;37.30;;;20.20;;
17790;SDS011;9019;48.132;-1.210;2022-12-11T04:57:31;38.10;;;20.27;;
17790;SDS011;9019;48.132;-1.210;2022-12-11T04:59:58;37.37;;;19.80;;
17790;SDS011;9019;48.132;-1.210;2022-12-11T05:02:26;37.10;;;19.17;;
17790;SDS011;9019;48.132;-1.210;2022-12-11T05:04:53;34.90;;;19.00;;
17790;SDS011;9019;48.132;-1.210;2022-12-11T05:07:20;37.60;;;18.97;;
17790;SDS011;9019;48.132;-1.210;2022-12-11T05:09:48;36.13;;;19.40;;
17790;SDS011;9019;48.132;-1.210;2022-12-11T05:12:17;34.03;;;18.37;;
17790;SDS011;9019;48.132;-1.210;2022-12-11T05:14:44;34.53;;;18.93;;
17790;SDS011;9019;48.132;-1.210;2022-12-11T05:17:14;33.87;;;18.60;;
17790;SDS011;9019;48.132;-1.210;2022-12-11T05:19:41;38.53;;;20.30;;
17790;SDS011;9019;48.132;-1.210;2022-12-11T05:22:08;36.87;;;19.93;;
17790;SDS011;9019;48.132;-1.210;2022-12-11T05:24:35;39.47;;;19.70;;
17790;SDS011;9019;48.132;-1.210;2022-12-11T05:27:03;38.73;;;20.20;;
17790;SDS011;9019;48.132;-1.210;2022-12-11T05:29:31;40.10;;;20.30;;
17790;SDS011;9019;48.132;-1.210;2022-12-11T05:31:59;42.63;;;21.47;;
17790;SDS011;9019;48.132;-1.210;2022-12-11T05:34:26;40.50;;;21.37;;
17790;SDS011;9019;48.132;-1.210;2022-12-11T05:36:53;42.17;;;21.43;;
17790;SDS011;9019;48.132;-1.210;2022-12-11T05:39:21;37.27;;;20.73;;
17790;SDS011;9019;48.132;-1.210;2022-12-11T05:41:48;36.67;;;19.17;;
17790;SDS011;9019;48.132;-1.210;2022-12-11T05:44:15;39.00;;;21.20;;
17790;SDS011;9019;48.132;-1.210;2022-12-11T05:46:45;45.00;;;20.87;;
17790;SDS011;9019;48.132;-1.210;2022-12-11T05:49:13;39.27;;;20.80;;
17790;SDS011;9019;48.132;-1.210;2022-12-11T05:51:41;39.27;;;20.43;;
17790;SDS011;9019;48.132;-1.210;2022-12-11T05:54:08;39.87;;;20.47;;
17790;SDS011;9019;48.132;-1.210;2022-12-11T05:56:36;44.87;;;22.13;;
17790;SDS011;9019;48.132;-1.210;2022-12-11T05:59:04;39.87;;;20.30;;
17790;SDS011;9019;48.132;-1.210;2022-12-11T06:01:32;43.47;;;21.87;;
17790;SDS011;9019;48.132;-1.210;2022-12-11T06:04:02;40.63;;;21.30;;
17790;SDS011;9019;48.132;-1.210;2022-12-11T06:06:29;43.97;;;21.93;;
17790;SDS011;9019;48.132;-1.210;2022-12-11T06:08:57;43.07;;;21.67;;
17790;SDS011;9019;48.132;-1.210;2022-12-11T06:11:25;41.93;;;21.90;;
17790;SDS011;9019;48.132;-1.210;2022-12-11T06:14:08;45.90;;;22.33;;
17790;SDS011;9019;48.132;-1.210;2022-12-11T06:16:35;48.37;;;22.03;;
17790;SDS011;9019;48.132;-1.210;2022-12-11T06:19:14;44.40;;;22.37;;
17790;SDS011;9019;48.132;-1.210;2022-12-11T06:21:42;47.67;;;22.43;;
17790;SDS011;9019;48.132;-1.210;2022-12-11T06:24:09;47.90;;;22.63;;
17790;SDS011;9019;48.132;-1.210;2022-12-11T06:26:40;49.83;;;22.70;;
17790;SDS011;9019;48.132;-1.210;2022-12-11T06:29:07;44.53;;;22.47;;
17790;SDS011;9019;48.132;-1.210;2022-12-11T06:31:44;46.23;;;23.23;;
17790;SDS011;9019;48.132;-1.210;2022-12-11T06:34:11;46.93;;;22.57;;
17790;SDS011;9019;48.132;-1.210;2022-12-11T06:36:40;47.73;;;22.73;;
17790;SDS011;9019;48.132;-1.210;2022-12-11T06:39:07;42.20;;;21.63;;
17790;SDS011;9019;48.132;-1.210;2022-12-11T06:41:34;45.63;;;23.17;;
17790;SDS011;9019;48.132;-1.210;2022-12-11T06:44:17;45.77;;;23.17;;
17790;SDS011;9019;48.132;-1.210;2022-12-11T06:46:55;42.50;;;22.27;;
17790;SDS011;9019;48.132;-1.210;2022-12-11T06:49:28;46.27;;;22.97;;
17790;SDS011;9019;48.132;-1.210;2022-12-11T06:52:03;43.13;;;22.00;;
17790;SDS011;9019;48.132;-1.210;2022-12-11T06:54:48;43.00;;;21.67;;
17790;SDS011;9019;48.132;-1.210;2022-12-11T06:57:22;45.53;;;23.23;;
17790;SDS011;9019;48.132;-1.210;2022-12-11T06:59:49;48.07;;;22.43;;
17790;SDS011;9019;48.132;-1.210;2022-12-11T07:02:17;47.40;;;23.23;;
17790;SDS011;9019;48.132;-1.210;2022-12-11T07:04:45;45.90;;;22.40;;
17790;SDS011;9019;48.132;-1.210;2022-12-11T07:07:15;46.63;;;23.53;;
17790;SDS011;9019;48.132;-1.210;2022-12-11T07:09:43;43.80;;;22.37;;
17790;SDS011;9019;48.132;-1.210;2022-12-11T07:12:15;47.20;;;23.03;;
17790;SDS011;9019;48.132;-1.210;2022-12-11T07:14:43;48.30;;;22.83;;
17790;SDS011;9019;48.132;-1.210;2022-12-11T07:17:10;50.00;;;22.70;;
17790;SDS011;9019;48.132;-1.210;2022-12-11T07:19:44;43.73;;;21.63;;
17790;SDS011;9019;48.132;-1.210;2022-12-11T07:22:15;42.83;;;22.40;;
17790;SDS011;9019;48.132;-1.210;2022-12-11T07:24:42;45.23;;;21.47;;
17790;SDS011;9019;48.132;-1.210;2022-12-11T07:27:16;44.80;;;22.60;;
17790;SDS011;9019;48.132;-1.210;2022-12-11T07:29:49;45.10;;;23.10;;
17790;SDS011;9019;48.132;-1.210;2022-12-11T07:32:24;46.40;;;22.37;;
17790;SDS011;9019;48.132;-1.210;2022-12-11T07:34:51;45.47;;;21.70;;
17790;SDS011;9019;48.132;-1.210;2022-12-11T07:37:20;43.77;;;21.97;;
17790;SDS011;9019;48.132;-1.210;2022-12-11T07:40:02;43.43;;;22.23;;
17790;SDS011;9019;48.132;-1.210;2022-12-11T07:42:29;46.10;;;23.07;;
17790;SDS011;9019;48.132;-1.210;2022-12-11T07:44:56;46.03;;;22.53;;
17790;SDS011;9019;48.132;-1.210;2022-12-11T07:47:24;42.83;;;22.30;;
17790;SDS011;9019;48.132;-1.210;2022-12-11T07:49:51;46.97;;;23.07;;
17790;SDS011;9019;48.132;-1.210;2022-12-11T07:52:18;42.73;;;22.50;;
17790;SDS011;9019;48.132;-1.210;2022-12-11T07:54:47;46.00;;;22.53;;
17790;SDS011;9019;48.132;-1.210;2022-12-11T07:57:27;49.60;;;22.57;;
17790;SDS011;9019;48.132;-1.210;2022-12-11T07:59:55;48.77;;;24.17;;
17790;SDS011;9019;48.132;-1.210;2022-12-11T08:02:35;48.37;;;24.10;;
17790;SDS011;9019;48.132;-1.210;2022-12-11T08:05:03;57.07;;;25.50;;
17790;SDS011;9019;48.132;-1.210;2022-12-11T08:07:32;47.77;;;24.60;;
17790;SDS011;9019;48.132;-1.210;2022-12-11T08:10:04;50.37;;;24.10;;
17790;SDS011;9019;48.132;-1.210;2022-12-11T08:12:34;49.67;;;23.57;;
17790;SDS011;9019;48.132;-1.210;2022-12-11T08:15:01;50.73;;;23.07;;
17790;SDS011;9019;48.132;-1.210;2022-12-11T08:17:31;48.33;;;24.10;;
17790;SDS011;9019;48.132;-1.210;2022-12-11T08:20:04;49.70;;;24.90;;
17790;SDS011;9019;48.132;-1.210;2022-12-11T08:22:33;53.93;;;25.20;;
17790;SDS011;9019;48.132;-1.210;2022-12-11T08:25:00;48.20;;;22.70;;
17790;SDS011;9019;48.132;-1.210;2022-12-11T08:27:29;54.17;;;25.23;;
17790;SDS011;9019;48.132;-1.210;2022-12-11T08:29:56;53.50;;;24.47;;
17790;SDS011;9019;48.132;-1.210;2022-12-11T08:32:24;55.10;;;25.43;;
17790;SDS011;9019;48.132;-1.210;2022-12-11T08:34:52;51.70;;;23.83;;
17790;SDS011;9019;48.132;-1.210;2022-12-11T08:37:19;51.63;;;24.13;;
17790;SDS011;9019;48.132;-1.210;2022-12-11T08:39:52;51.73;;;22.57;;
17790;SDS011;9019;48.132;-1.210;2022-12-11T08:42:19;55.27;;;24.93;;
17790;SDS011;9019;48.132;-1.210;2022-12-11T08:44:48;52.97;;;23.30;;
17790;SDS011;9019;48.132;-1.210;2022-12-11T08:47:15;54.63;;;24.90;;
17790;SDS011;9019;48.132;-1.210;2022-12-11T08:49:43;50.23;;;23.60;;
17790;SDS011;9019;48.132;-1.210;2022-12-11T08:52:10;50.67;;;25.70;;
17790;SDS011;9019;48.132;-1.210;2022-12-11T08:54:38;52.60;;;24.83;;
17790;SDS011;9019;48.132;-1.210;2022-12-11T08:57:05;55.10;;;24.13;;
17790;SDS011;9019;48.132;-1.210;2022-12-11T08:59:32;56.43;;;25.93;;
17790;SDS011;9019;48.132;-1.210;2022-12-11T09:02:01;44.83;;;20.97;;
17790;SDS011;9019;48.132;-1.210;2022-12-11T09:04:28;53.73;;;25.33;;
17790;SDS011;9019;48.132;-1.210;2022-12-11T09:06:55;57.10;;;26.50;;
17790;SDS011;9019;48.132;-1.210;2022-12-11T09:09:23;56.37;;;26.10;;
17790;SDS011;9019;48.132;-1.210;2022-12-11T09:11:50;52.03;;;26.73;;
17790;SDS011;9019;48.132;-1.210;2022-12-11T09:14:17;53.73;;;26.20;;
17790;SDS011;9019;48.132;-1.210;2022-12-11T09:16:45;57.33;;;25.57;;
17790;SDS011;9019;48.132;-1.210;2022-12-11T09:19:14;57.67;;;26.90;;
17790;SDS011;9019;48.132;-1.210;2022-12-11T09:21:42;54.37;;;27.47;;
17790;SDS011;9019;48.132;-1.210;2022-12-11T09:24:10;57.20;;;27.83;;
17790;SDS011;9019;48.132;-1.210;2022-12-11T09:26:37;59.00;;;28.00;;
17790;SDS011;9019;48.132;-1.210;2022-12-11T09:29:04;54.73;;;26.53;;
17790;SDS011;9019;48.132;-1.210;2022-12-11T09:31:32;53.33;;;26.00;;
17790;SDS011;9019;48.132;-1.210;2022-12-11T09:34:01;51.20;;;26.37;;
17790;SDS011;9019;48.132;-1.210;2022-12-11T09:36:30;52.37;;;26.43;;
17790;SDS011;9019;48.132;-1.210;2022-12-11T09:38:58;48.60;;;24.90;;
17790;SDS011;9019;48.132;-1.210;2022-12-11T09:41:31;46.87;;;23.63;;
17790;SDS011;9019;48.132;-1.210;2022-12-11T09:44:01;49.57;;;24.53;;
17790;SDS011;9019;48.132;-1.210;2022-12-11T09:46:31;52.80;;;26.33;;
17790;SDS011;9019;48.132;-1.210;2022-12-11T09:49:00;44.90;;;23.63;;
17790;SDS011;9019;48.132;-1.210;2022-12-11T09:51:37;46.43;;;24.50;;
17790;SDS011;9019;48.132;-1.210;2022-12-11T09:54:06;49.10;;;25.10;;
17790;SDS011;9019;48.132;-1.210;2022-12-11T09:56:35;48.03;;;25.27;;
17790;SDS011;9019;48.132;-1.210;2022-12-11T09:59:04;51.83;;;25.33;;
17790;SDS011;9019;48.132;-1.210;2022-12-11T10:01:37;50.30;;;25.70;;
17790;SDS011;9019;48.132;-1.210;2022-12-11T10:04:14;48.33;;;26.10;;
17790;SDS011;9019;48.132;-1.210;2022-12-11T10:06:47;46.97;;;25.33;;
17790;SDS011;9019;48.132;-1.210;2022-12-11T10:09:16;45.57;;;25.53;;
17790;SDS011;9019;48.132;-1.210;2022-12-11T10:11:49;52.03;;;25.87;;
17790;SDS011;9019;48.132;-1.210;2022-12-11T10:14:19;43.97;;;24.03;;
17790;SDS011;9019;48.132;-1.210;2022-12-11T10:16:49;45.37;;;24.00;;
17790;SDS011;9019;48.132;-1.210;2022-12-11T10:19:17;53.83;;;25.07;;
17790;SDS011;9019;48.132;-1.210;2022-12-11T10:21:47;50.20;;;25.90;;
17790;SDS011;9019;48.132;-1.210;2022-12-11T10:24:17;49.37;;;25.97;;
17790;SDS011;9019;48.132;-1.210;2022-12-11T10:26:46;47.07;;;27.23;;
17790;SDS011;9019;48.132;-1.210;2022-12-11T10:29:14;48.43;;;26.90;;
17790;SDS011;9019;48.132;-1.210;2022-12-11T10:31:43;53.93;;;28.13;;
17790;SDS011;9019;48.132;-1.210;2022-12-11T10:34:14;45.67;;;25.00;;
17790;SDS011;9019;48.132;-1.210;2022-12-11T10:36:44;41.63;;;22.70;;
17790;SDS011;9019;48.132;-1.210;2022-12-11T10:39:13;44.80;;;25.10;;
17790;SDS011;9019;48.132;-1.210;2022-12-11T10:41:42;42.77;;;23.70;;
17790;SDS011;9019;48.132;-1.210;2022-12-11T10:44:13;44.97;;;24.23;;
17790;SDS011;9019;48.132;-1.210;2022-12-11T10:46:41;42.83;;;23.03;;
17790;SDS011;9019;48.132;-1.210;2022-12-11T10:49:19;43.77;;;23.83;;
17790;SDS011;9019;48.132;-1.210;2022-12-11T10:51:46;43.40;;;23.63;;
17790;SDS011;9019;48.132;-1.210;2022-12-11T10:54:23;42.07;;;23.90;;
17790;SDS011;9019;48.132;-1.210;2022-12-11T10:56:53;45.60;;;24.50;;
17790;SDS011;9019;48.132;-1.210;2022-12-11T10:59:21;42.43;;;24.37;;
17790;SDS011;9019;48.132;-1.210;2022-12-11T11:01:50;42.67;;;23.33;;
17790;SDS011;9019;48.132;-1.210;2022-12-11T11:04:19;42.37;;;22.57;;
17790;SDS011;9019;48.132;-1.210;2022-12-11T11:06:59;37.47;;;19.40;;
17790;SDS011;9019;48.132;-1.210;2022-12-11T11:09:29;35.10;;;21.40;;
17790;SDS011;9019;48.132;-1.210;2022-12-11T11:11:57;35.87;;;21.67;;
17790;SDS011;9019;48.132;-1.210;2022-12-11T11:14:24;35.73;;;20.90;;
17790;SDS011;9019;48.132;-1.210;2022-12-11T11:16:53;36.03;;;19.90;;
17790;SDS011;9019;48.132;-1.210;2022-12-11T11:19:21;35.50;;;20.83;;
17790;SDS011;9019;48.132;-1.210;2022-12-11T11:21:50;24.50;;;14.13;;
17790;SDS011;9019;48.132;-1.210;2022-12-11T11:24:23;34.20;;;19.63;;
17790;SDS011;9019;48.132;-1.210;2022-12-11T11:26:52;35.53;;;20.37;;
17790;SDS011;9019;48.132;-1.210;2022-12-11T11:29:21;36.63;;;20.60;;
17790;SDS011;9019;48.132;-1.210;2022-12-11T11:31:51;32.00;;;19.50;;
17790;SDS011;9019;48.132;-1.210;2022-12-11T11:34:19;36.77;;;20.37;;
17790;SDS011;9019;48.132;-1.210;2022-12-11T11:36:54;33.27;;;19.80;;
17790;SDS011;9019;48.132;-1.210;2022-12-11T11:39:24;33.20;;;19.87;;
17790;SDS011;9019;48.132;-1.210;2022-12-11T11:41:54;34.87;;;18.70;;
17790;SDS011;9019;48.132;-1.210;2022-12-11T11:44:25;27.23;;;17.20;;
17790;SDS011;9019;48.132;-1.210;2022-12-11T11:46:55;35.20;;;18.87;;
17790;SDS011;9019;48.132;-1.210;2022-12-11T11:49:27;30.00;;;17.70;;
17790;SDS011;9019;48.132;-1.210;2022-12-11T11:51:59;28.73;;;17.47;;
17790;SDS011;9019;48.132;-1.210;2022-12-11T11:54:29;28.73;;;17.30;;
17790;SDS011;9019;48.132;-1.210;2022-12-11T11:57:00;27.87;;;17.13;;
17790;SDS011;9019;48.132;-1.210;2022-12-11T11:59:30;28.13;;;17.20;;
17790;SDS011;9019;48.132;-1.210;2022-12-11T12:01:59;27.73;;;16.83;;
17790;SDS011;9019;48.132;-1.210;2022-12-11T12:04:31;27.90;;;16.87;;
17790;SDS011;9019;48.132;-1.210;2022-12-11T12:07:09;25.17;;;16.30;;
17790;SDS011;9019;48.132;-1.210;2022-12-11T12:09:44;25.57;;;16.43;;
17790;SDS011;9019;48.132;-1.210;2022-12-11T12:12:18;26.07;;;16.37;;
17790;SDS011;9019;48.132;-1.210;2022-12-11T12:14:53;25.03;;;15.73;;
17790;SDS011;9019;48.132;-1.210;2022-12-11T12:17:23;23.07;;;15.00;;
17790;SDS011;9019;48.132;-1.210;2022-12-11T12:19:54;23.33;;;14.83;;
17790;SDS011;9019;48.132;-1.210;2022-12-11T12:22:30;24.13;;;14.90;;
17790;SDS011;9019;48.132;-1.210;2022-12-11T12:25:02;23.00;;;14.23;;
17790;SDS011;9019;48.132;-1.210;2022-12-11T12:27:34;24.60;;;15.23;;
17790;SDS011;9019;48.132;-1.210;2022-12-11T12:30:05;26.63;;;15.73;;
17790;SDS011;9019;48.132;-1.210;2022-12-11T12:32:37;24.57;;;14.43;;
17790;SDS011;9019;48.132;-1.210;2022-12-11T12:35:09;26.23;;;14.90;;
17790;SDS011;9019;48.132;-1.210;2022-12-11T12:37:46;23.50;;;14.17;;
17790;SDS011;9019;48.132;-1.210;2022-12-11T12:40:17;23.83;;;14.67;;
17790;SDS011;9019;48.132;-1.210;2022-12-11T12:42:48;25.27;;;15.53;;
17790;SDS011;9019;48.132;-1.210;2022-12-11T12:45:22;22.87;;;14.97;;
17790;SDS011;9019;48.132;-1.210;2022-12-11T12:47:51;24.27;;;15.07;;
17790;SDS011;9019;48.132;-1.210;2022-12-11T12:50:19;23.83;;;15.30;;
17790;SDS011;9019;48.132;-1.210;2022-12-11T12:52:47;25.93;;;14.80;;
17790;SDS011;9019;48.132;-1.210;2022-12-11T12:55:19;21.63;;;14.67;;
17790;SDS011;9019;48.132;-1.210;2022-12-11T12:57:49;22.70;;;14.60;;
17790;SDS011;9019;48.132;-1.210;2022-12-11T13:00:31;22.47;;;14.30;;
17790;SDS011;9019;48.132;-1.210;2022-12-11T13:02:59;23.77;;;15.23;;
17790;SDS011;9019;48.132;-1.210;2022-12-11T13:05:28;23.30;;;14.97;;
17790;SDS011;9019;48.132;-1.210;2022-12-11T13:07:58;21.00;;;14.10;;
17790;SDS011;9019;48.132;-1.210;2022-12-11T13:10:27;23.43;;;14.30;;
17790;SDS011;9019;48.132;-1.210;2022-12-11T13:12:57;22.70;;;14.03;;
17790;SDS011;9019;48.132;-1.210;2022-12-11T13:15:30;21.20;;;13.83;;
17790;SDS011;9019;48.132;-1.210;2022-12-11T13:17:58;23.00;;;14.40;;
17790;SDS011;9019;48.132;-1.210;2022-12-11T13:20:27;22.40;;;14.03;;
17790;SDS011;9019;48.132;-1.210;2022-12-11T13:22:55;22.70;;;14.27;;
17790;SDS011;9019;48.132;-1.210;2022-12-11T13:25:44;21.77;;;13.57;;
17790;SDS011;9019;48.132;-1.210;2022-12-11T13:28:20;19.90;;;13.77;;
17790;SDS011;9019;48.132;-1.210;2022-12-11T13:30:56;22.27;;;14.20;;
17790;SDS011;9019;48.132;-1.210;2022-12-11T13:33:23;23.03;;;14.67;;
17790;SDS011;9019;48.132;-1.210;2022-12-11T13:36:11;21.33;;;14.27;;
17790;SDS011;9019;48.132;-1.210;2022-12-11T13:38:44;24.23;;;14.60;;
17790;SDS011;9019;48.132;-1.210;2022-12-11T13:41:12;22.93;;;14.47;;
17790;SDS011;9019;48.132;-1.210;2022-12-11T13:43:41;23.40;;;14.37;;
17790;SDS011;9019;48.132;-1.210;2022-12-11T13:46:13;23.33;;;14.73;;
17790;SDS011;9019;48.132;-1.210;2022-12-11T13:48:43;24.00;;;14.27;;
17790;SDS011;9019;48.132;-1.210;2022-12-11T13:51:12;22.23;;;13.83;;
17790;SDS011;9019;48.132;-1.210;2022-12-11T13:53:41;22.63;;;14.87;;
17790;SDS011;9019;48.132;-1.210;2022-12-11T13:56:12;22.00;;;13.57;;
17790;SDS011;9019;48.132;-1.210;2022-12-11T13:58:43;24.07;;;14.23;;
17790;SDS011;9019;48.132;-1.210;2022-12-11T14:01:12;22.47;;;14.00;;
17790;SDS011;9019;48.132;-1.210;2022-12-11T14:03:44;23.10;;;14.60;;
17790;SDS011;9019;48.132;-1.210;2022-12-11T14:06:13;21.97;;;13.93;;
17790;SDS011;9019;48.132;-1.210;2022-12-11T14:08:41;22.53;;;14.80;;
17790;SDS011;9019;48.132;-1.210;2022-12-11T14:11:11;22.83;;;14.37;;
17790;SDS011;9019;48.132;-1.210;2022-12-11T14:13:43;22.63;;;14.43;;
17790;SDS011;9019;48.132;-1.210;2022-12-11T14:16:13;22.47;;;14.90;;
17790;SDS011;9019;48.132;-1.210;2022-12-11T14:18:46;26.80;;;15.50;;
17790;SDS011;9019;48.132;-1.210;2022-12-11T14:21:16;24.57;;;15.40;;
17790;SDS011;9019;48.132;-1.210;2022-12-11T14:23:49;27.87;;;16.73;;
17790;SDS011;9019;48.132;-1.210;2022-12-11T14:26:18;23.50;;;15.13;;
17790;SDS011;9019;48.132;-1.210;2022-12-11T14:28:47;26.43;;;15.60;;
17790;SDS011;9019;48.132;-1.210;2022-12-11T14:31:15;23.77;;;15.23;;
17790;SDS011;9019;48.132;-1.210;2022-12-11T14:33:44;26.33;;;16.53;;
17790;SDS011;9019;48.132;-1.210;2022-12-11T14:36:12;24.90;;;15.67;;
17790;SDS011;9019;48.132;-1.210;2022-12-11T14:38:41;29.37;;;17.40;;